createdAt,value
2023-03-28T00:00:39.241Z,1.57
2023-03-28T00:03:06.900Z,1.70
2023-03-28T00:05:37.373Z,1.77
2023-03-28T00:08:05.391Z,2.03
2023-03-28T00:10:33.132Z,1.40
2023-03-28T00:13:00.727Z,1.90
2023-03-28T00:15:28.677Z,1.40
2023-03-28T00:17:56.353Z,1.50
2023-03-28T00:20:24.087Z,1.33
2023-03-28T00:22:54.865Z,1.47
2023-03-28T00:25:22.518Z,2.10
2023-03-28T00:27:50.433Z,1.40
2023-03-28T00:30:18.093Z,1.53
2023-03-28T00:32:45.725Z,1.33
2023-03-28T00:35:13.724Z,2.00
2023-03-28T00:37:42.105Z,1.67
2023-03-28T00:40:13.867Z,1.23
2023-03-28T00:42:43.445Z,1.67
2023-03-28T00:45:12.696Z,1.87
2023-03-28T00:47:44.647Z,2.33
2023-03-28T00:50:20.162Z,2.13
2023-03-28T00:52:53.010Z,1.53
2023-03-28T00:55:27.030Z,1.83
2023-03-28T00:57:55.779Z,1.60
2023-03-28T01:00:24.889Z,2.27
2023-03-28T01:02:58.372Z,1.53
2023-03-28T01:05:28.860Z,1.53
2023-03-28T01:08:03.153Z,1.30
2023-03-28T01:10:33.412Z,1.73
2023-03-28T01:13:03.175Z,1.30
2023-03-28T01:15:32.747Z,1.63
2023-03-28T01:18:03.702Z,2.03
2023-03-28T01:21:03.136Z,1.87
2023-03-28T01:24:11.391Z,1.30
2023-03-28T01:26:53.922Z,1.50
2023-03-28T01:30:07.481Z,1.40
2023-03-28T01:33:34.054Z,1.50
2023-03-28T01:36:35.654Z,1.20
2023-03-28T01:39:12.826Z,1.50
2023-03-28T01:41:51.522Z,1.40
2023-03-28T01:44:30.456Z,1.53
2023-03-28T01:47:07.063Z,1.47
2023-03-28T01:49:43.122Z,1.37
2023-03-28T01:52:20.416Z,1.70
2023-03-28T01:54:55.606Z,1.50
2023-03-28T01:57:28.214Z,1.73
2023-03-28T02:00:11.161Z,1.67
2023-03-28T02:03:02.224Z,1.20
2023-03-28T02:05:37.734Z,1.50
2023-03-28T02:08:12.943Z,1.53
2023-03-28T02:10:47.401Z,1.47
2023-03-28T02:13:44.935Z,1.20
2023-03-28T02:16:37.093Z,1.67
2023-03-28T02:19:24.456Z,1.10
2023-03-28T02:22:16.334Z,1.50
2023-03-28T02:25:07.976Z,1.90
2023-03-28T02:28:05.390Z,1.40
2023-03-28T02:30:51.744Z,2.03
2023-03-28T02:33:37.809Z,1.47
2023-03-28T02:36:18.060Z,1.47
2023-03-28T02:38:58.773Z,1.30
2023-03-28T02:41:36.075Z,1.57
2023-03-28T02:44:21.157Z,1.40
2023-03-28T02:47:01.275Z,1.40
2023-03-28T02:49:49.938Z,1.00
2023-03-28T02:52:30.597Z,1.53
2023-03-28T02:55:03.217Z,2.23
2023-03-28T02:57:42.810Z,1.40
2023-03-28T03:00:16.548Z,1.70
2023-03-28T03:02:46.641Z,1.40
2023-03-28T03:05:14.459Z,1.37
2023-03-28T03:07:42.494Z,1.50
2023-03-28T03:10:14.121Z,1.20
2023-03-28T03:12:46.254Z,1.47
2023-03-28T03:15:17.165Z,1.63
2023-03-28T03:17:56.108Z,1.97
2023-03-28T03:20:27.081Z,1.60
2023-03-28T03:22:55.496Z,1.70
2023-03-28T03:25:23.430Z,1.67
2023-03-28T03:27:57.094Z,2.10
2023-03-28T03:30:26.066Z,1.90
2023-03-28T03:33:16.880Z,2.30
2023-03-28T03:35:48.482Z,2.57
2023-03-28T03:38:17.724Z,2.50
2023-03-28T03:40:45.380Z,2.17
2023-03-28T03:43:13.022Z,2.00
2023-03-28T03:45:45.934Z,2.20
2023-03-28T03:48:13.783Z,2.80
2023-03-28T03:50:41.856Z,2.27
2023-03-28T03:53:15.567Z,2.63
2023-03-28T03:55:50.286Z,2.70
2023-03-28T03:58:20.450Z,2.43
2023-03-28T04:00:50.897Z,2.13
2023-03-28T04:03:36.771Z,2.20
2023-03-28T04:06:05.375Z,2.10
2023-03-28T04:08:34.379Z,2.27
2023-03-28T04:11:03.311Z,2.67
2023-03-28T04:13:37.728Z,2.60
2023-03-28T04:16:08.035Z,2.50
2023-03-28T04:18:50.588Z,2.60
2023-03-28T04:21:25.775Z,3.43
2023-03-28T04:23:54.418Z,2.77
2023-03-28T04:26:28.518Z,3.70
2023-03-28T04:29:05.932Z,2.70
2023-03-28T04:31:39.581Z,3.10
2023-03-28T04:34:39.771Z,3.10
2023-03-28T04:37:15.452Z,2.87
2023-03-28T04:42:11.108Z,2.50
2023-03-28T04:44:57.249Z,2.17
2023-03-28T04:47:25.492Z,2.23
2023-03-28T04:49:54.159Z,2.20
2023-03-28T04:52:21.859Z,2.27
2023-03-28T04:54:49.694Z,1.97
2023-03-28T04:57:22.252Z,1.77
2023-03-28T04:59:54.262Z,2.10
2023-03-28T05:02:44.817Z,2.23
2023-03-28T05:05:16.009Z,2.00
2023-03-28T05:07:43.663Z,2.20
2023-03-28T05:10:14.001Z,2.10
2023-03-28T05:12:43.672Z,2.17
2023-03-28T05:15:11.948Z,2.33
2023-03-28T05:18:00.774Z,2.03
2023-03-28T05:20:32.259Z,2.43
2023-03-28T05:23:01.250Z,2.27
2023-03-28T05:25:30.093Z,1.97
2023-03-28T05:27:59.135Z,2.07
2023-03-28T05:30:27.163Z,2.10
2023-03-28T05:32:56.847Z,2.40
2023-03-28T05:35:24.651Z,2.13
2023-03-28T05:37:52.551Z,2.80
2023-03-28T05:40:20.488Z,2.50
2023-03-28T05:42:48.160Z,2.60
2023-03-28T05:45:18.827Z,2.47
2023-03-28T05:47:46.544Z,2.27
2023-03-28T05:50:14.897Z,2.57
2023-03-28T05:52:42.922Z,1.93
2023-03-28T05:55:11.030Z,2.33
2023-03-28T05:57:39.682Z,2.60
2023-03-28T06:00:11.142Z,2.60
2023-03-28T06:02:47.140Z,2.70
2023-03-28T06:05:18.920Z,2.50
2023-03-28T06:07:47.456Z,2.63
2023-03-28T06:10:18.478Z,1.87
2023-03-28T06:12:57.633Z,2.80
2023-03-28T06:15:25.328Z,2.03
2023-03-28T06:17:54.386Z,1.70
2023-03-28T06:20:22.114Z,2.13
2023-03-28T06:22:54.411Z,2.00
2023-03-28T06:25:22.136Z,1.93
2023-03-28T06:27:50.838Z,2.20
2023-03-28T06:30:22.323Z,2.00
2023-03-28T06:32:52.193Z,2.13
2023-03-28T06:35:21.237Z,1.90
2023-03-28T06:37:48.893Z,2.23
2023-03-28T06:40:24.634Z,2.00
2023-03-28T06:42:52.302Z,2.27
2023-03-28T06:45:32.052Z,2.10
2023-03-28T06:48:05.795Z,2.30
2023-03-28T06:50:55.350Z,2.30
2023-03-28T06:53:25.209Z,2.47
2023-03-28T06:55:54.622Z,2.50
2023-03-28T06:58:28.977Z,2.50
2023-03-28T07:01:01.813Z,2.60
2023-03-28T07:03:40.386Z,2.30
2023-03-28T07:06:11.516Z,2.40
2023-03-28T07:08:39.456Z,3.10
2023-03-28T07:11:08.058Z,2.50
2023-03-28T07:13:35.918Z,2.23
2023-03-28T07:16:09.179Z,2.43
2023-03-28T07:18:37.546Z,2.30
2023-03-28T07:21:12.549Z,2.40
2023-03-28T07:23:40.787Z,1.97
2023-03-28T07:26:11.026Z,2.67
2023-03-28T07:28:39.803Z,2.40
2023-03-28T07:31:08.538Z,2.40
2023-03-28T07:33:38.472Z,2.60
2023-03-28T07:36:15.078Z,2.40
2023-03-28T07:38:47.245Z,2.33
2023-03-28T07:41:16.488Z,2.70
2023-03-28T07:43:44.714Z,2.33
2023-03-28T07:46:15.153Z,2.73
2023-03-28T07:48:46.740Z,2.20
2023-03-28T07:51:19.771Z,2.80
2023-03-28T07:53:47.435Z,2.57
2023-03-28T07:56:15.542Z,2.33
2023-03-28T07:59:02.618Z,1.97
2023-03-28T08:01:33.555Z,2.63
2023-03-28T08:04:06.076Z,2.57
2023-03-28T08:06:56.263Z,2.30
2023-03-28T08:09:26.582Z,2.47
2023-03-28T08:12:06.602Z,2.27
2023-03-28T08:14:34.297Z,2.80
2023-03-28T08:17:02.023Z,2.33
2023-03-28T08:19:31.831Z,2.50
2023-03-28T08:22:16.671Z,2.30
2023-03-28T08:25:04.586Z,2.70
2023-03-28T08:27:32.266Z,2.40
2023-03-28T08:30:09.544Z,2.40
2023-03-28T08:32:48.729Z,2.63
2023-03-28T08:35:16.858Z,2.33
2023-03-28T08:37:47.317Z,2.43
2023-03-28T08:40:18.716Z,2.03
2023-03-28T08:42:58.200Z,1.93
2023-03-28T08:45:34.425Z,1.90
2023-03-28T08:48:12.739Z,2.90
2023-03-28T08:50:44.437Z,3.37
2023-03-28T08:53:21.459Z,2.30
2023-03-28T08:55:51.132Z,1.90
2023-03-28T08:58:23.496Z,2.43
2023-03-28T09:00:52.852Z,2.03
2023-03-28T09:03:23.643Z,2.00
2023-03-28T09:06:04.820Z,1.83
2023-03-28T09:09:02.382Z,2.27
2023-03-28T09:11:45.605Z,2.23
2023-03-28T09:14:36.404Z,2.20
2023-03-28T09:17:10.375Z,1.80
2023-03-28T09:19:50.629Z,2.00
2023-03-28T09:22:47.138Z,1.73
2023-03-28T09:25:27.280Z,2.03
2023-03-28T09:28:05.332Z,1.70
2023-03-28T09:30:35.608Z,2.60
2023-03-28T09:33:07.733Z,1.90
2023-03-28T09:35:35.601Z,1.73
2023-03-28T09:38:05.779Z,1.70
2023-03-28T09:40:36.529Z,1.60
2023-03-28T09:43:31.487Z,1.70
2023-03-28T09:46:12.463Z,1.67
2023-03-28T09:48:55.370Z,1.80
2023-03-28T09:51:26.754Z,1.67
2023-03-28T09:53:55.374Z,1.47
2023-03-28T09:56:29.633Z,1.73
2023-03-28T09:59:11.894Z,1.60
2023-03-28T10:01:49.232Z,1.67
2023-03-28T10:04:34.031Z,2.00
2023-03-28T10:07:34.222Z,1.53
2023-03-28T10:10:22.159Z,1.70
2023-03-28T10:12:59.920Z,1.40
2023-03-28T10:15:34.481Z,1.30
2023-03-28T10:18:34.805Z,1.53
2023-03-28T10:21:27.280Z,1.90
2023-03-28T10:24:06.516Z,1.50
2023-03-28T10:26:34.712Z,1.27
2023-03-28T10:29:08.539Z,1.90
2023-03-28T10:31:40.136Z,1.60
2023-03-28T10:34:33.869Z,1.53
2023-03-28T10:37:27.316Z,1.10
2023-03-28T10:40:25.386Z,1.00
2023-03-28T10:43:20.835Z,1.37
2023-03-28T10:46:15.594Z,1.17
2023-03-28T10:49:15.370Z,1.10
2023-03-28T10:51:46.837Z,1.10
2023-03-28T10:54:34.524Z,1.20
2023-03-28T10:57:13.064Z,1.33
2023-03-28T10:59:55.911Z,1.57
2023-03-28T11:02:53.223Z,1.47
2023-03-28T11:05:35.041Z,1.73
2023-03-28T11:08:20.611Z,1.17
2023-03-28T11:11:05.736Z,1.20
2023-03-28T11:13:54.220Z,1.50
2023-03-28T11:16:34.422Z,1.10
2023-03-28T11:19:42.100Z,1.33
2023-03-28T11:22:21.948Z,1.37
2023-03-28T11:25:04.122Z,1.10
2023-03-28T11:28:08.065Z,1.20
2023-03-28T11:30:41.763Z,1.23
2023-03-28T11:33:37.036Z,1.27
2023-03-28T11:36:19.855Z,1.20
2023-03-28T11:38:51.832Z,1.20
2023-03-28T11:41:22.140Z,1.40
2023-03-28T11:44:08.447Z,1.37
2023-03-28T11:46:40.324Z,1.60
2023-03-28T11:49:16.900Z,1.50
2023-03-28T11:51:51.706Z,1.50
2023-03-28T11:54:25.817Z,1.33
2023-03-28T11:56:57.927Z,1.27
2023-03-28T11:59:41.772Z,1.20
2023-03-28T12:02:21.236Z,0.90
2023-03-28T12:04:53.993Z,1.00
2023-03-28T12:07:27.386Z,1.10
2023-03-28T12:10:05.858Z,1.13
2023-03-28T12:12:36.698Z,1.20
2023-03-28T12:15:08.343Z,0.90
2023-03-28T12:18:06.075Z,0.93
2023-03-28T12:20:40.785Z,1.03
2023-03-28T12:23:26.229Z,1.23
2023-03-28T12:26:24.373Z,1.70
2023-03-28T12:28:55.638Z,1.70
2023-03-28T12:31:28.881Z,1.73
2023-03-28T12:34:13.388Z,1.13
2023-03-28T12:37:19.566Z,1.40
2023-03-28T12:39:55.749Z,1.43
2023-03-28T12:42:30.154Z,1.47
2023-03-28T12:45:01.608Z,1.10
2023-03-28T12:47:35.350Z,1.30
2023-03-28T12:50:09.372Z,1.40
2023-03-28T12:52:42.353Z,1.10
2023-03-28T12:55:47.051Z,1.10
2023-03-28T12:58:27.401Z,1.00
2023-03-28T13:01:35.317Z,1.33
2023-03-28T13:04:31.181Z,1.27
2023-03-28T13:07:28.252Z,1.30
2023-03-28T13:10:04.642Z,1.07
2023-03-28T13:12:56.724Z,1.50
2023-03-28T13:15:31.177Z,2.00
2023-03-28T13:18:32.566Z,1.30
2023-03-28T13:21:04.127Z,1.40
2023-03-28T13:23:37.956Z,1.27
2023-03-28T13:26:07.736Z,1.43
2023-03-28T13:28:47.551Z,1.20
2023-03-28T13:31:24.495Z,1.63
2023-03-28T13:33:58.719Z,1.30
2023-03-28T13:36:28.863Z,1.10
2023-03-28T13:39:19.615Z,1.53
2023-03-28T13:42:03.155Z,1.10
2023-03-28T13:44:45.953Z,1.30
2023-03-28T13:47:23.177Z,1.40
2023-03-28T13:49:54.951Z,1.17
2023-03-28T13:52:24.596Z,1.20
2023-03-28T13:54:54.917Z,1.37
2023-03-28T13:57:25.990Z,1.40
2023-03-28T13:59:56.903Z,1.13
2023-03-28T14:02:33.780Z,1.23
2023-03-28T14:05:19.444Z,1.73
2023-03-28T14:07:47.366Z,1.60
2023-03-28T14:10:29.864Z,2.17
2023-03-28T14:13:03.447Z,1.73
2023-03-28T14:15:36.289Z,1.70
2023-03-28T14:18:04.872Z,1.43
2023-03-28T14:20:36.191Z,1.77
2023-03-28T14:23:05.449Z,1.40
2023-03-28T14:25:34.024Z,1.60
2023-03-28T14:28:08.450Z,2.03
2023-03-28T14:30:42.808Z,2.40
2023-03-28T14:33:21.473Z,2.00
2023-03-28T14:36:01.773Z,1.97
2023-03-28T14:38:34.779Z,1.93
2023-03-28T14:41:09.294Z,1.77
2023-03-28T14:43:38.365Z,1.73
2023-03-28T14:46:09.751Z,2.20
2023-03-28T14:48:39.086Z,1.57
2023-03-28T14:51:07.930Z,1.33
2023-03-28T14:53:38.731Z,1.50
2023-03-28T14:56:11.442Z,1.40
2023-03-28T14:58:43.249Z,1.47
2023-03-28T15:01:21.690Z,1.30
2023-03-28T15:03:54.109Z,1.70
2023-03-28T15:06:25.336Z,1.50
2023-03-28T15:08:55.874Z,1.30
2023-03-28T15:11:26.477Z,1.43
2023-03-28T15:14:03.203Z,1.83
2023-03-28T15:16:37.391Z,1.60
2023-03-28T15:19:08.289Z,1.63
2023-03-28T15:21:38.096Z,1.53
2023-03-28T15:24:08.804Z,1.40
2023-03-28T15:26:39.663Z,1.60
2023-03-28T15:29:09.046Z,1.50
2023-03-28T15:31:41.633Z,1.63
2023-03-28T15:34:11.487Z,1.70
2023-03-28T15:36:49.248Z,1.70
2023-03-28T15:39:22.858Z,1.50
2023-03-28T15:41:54.707Z,1.70
2023-03-28T15:44:31.096Z,1.47
2023-03-28T15:47:02.577Z,1.50
2023-03-28T15:49:36.554Z,1.40
2023-03-28T15:52:06.228Z,1.60
2023-03-28T15:54:42.911Z,1.43
2023-03-28T15:57:14.091Z,1.30
2023-03-28T15:59:48.410Z,1.10
2023-03-28T16:02:37.172Z,1.10
2023-03-28T16:05:07.523Z,1.23
2023-03-28T16:07:37.238Z,1.20
2023-03-28T16:10:05.650Z,1.67
2023-03-28T16:12:41.823Z,1.83
2023-03-28T16:15:33.731Z,1.60
2023-03-28T16:18:15.652Z,1.40
2023-03-28T16:20:53.532Z,1.70
2023-03-28T16:23:21.186Z,1.60
2023-03-28T16:25:48.983Z,1.77
2023-03-28T16:28:18.534Z,1.60
2023-03-28T16:30:47.096Z,1.60
2023-03-28T16:33:16.978Z,1.70
2023-03-28T16:35:44.706Z,1.60
2023-03-28T16:38:12.674Z,1.67
2023-03-28T16:40:40.737Z,1.60
2023-03-28T16:43:08.677Z,1.57
2023-03-28T16:45:36.381Z,1.57
2023-03-28T16:48:04.153Z,1.30
2023-03-28T16:50:33.141Z,1.13
2023-03-28T16:53:02.241Z,1.20
2023-03-28T16:55:29.815Z,1.40
2023-03-28T16:57:57.484Z,0.90
2023-03-28T17:00:34.009Z,1.10
2023-03-28T17:03:01.819Z,1.13
2023-03-28T17:05:29.476Z,0.77
2023-03-28T17:07:59.553Z,0.90
2023-03-28T17:10:29.401Z,1.10
2023-03-28T17:12:57.850Z,0.90
2023-03-28T17:15:25.575Z,1.17
2023-03-28T17:17:53.232Z,1.10
2023-03-28T17:20:21.197Z,0.80
2023-03-28T17:22:48.987Z,0.53
2023-03-28T17:25:18.580Z,0.80
2023-03-28T17:27:46.510Z,0.83
2023-03-28T17:30:14.979Z,0.80
2023-03-28T17:32:42.729Z,0.60
2023-03-28T17:35:12.013Z,0.80
2023-03-28T17:37:40.054Z,0.70
2023-03-28T17:40:09.055Z,0.97
2023-03-28T17:42:38.326Z,1.00
2023-03-28T17:45:07.139Z,0.93
2023-03-28T17:47:34.902Z,1.00
2023-03-28T17:50:03.681Z,1.27
2023-03-28T17:52:31.980Z,1.20
2023-03-28T17:55:00.241Z,1.03
2023-03-28T17:57:27.899Z,1.07
2023-03-28T17:59:56.828Z,0.70
2023-03-28T18:02:24.948Z,0.83
2023-03-28T18:05:03.387Z,1.20
2023-03-28T18:07:32.589Z,0.83
2023-03-28T18:10:02.925Z,0.90
2023-03-28T18:12:30.858Z,0.90
2023-03-28T18:15:01.137Z,0.93
2023-03-28T18:17:29.591Z,0.80
2023-03-28T18:19:57.526Z,0.97
2023-03-28T18:22:25.496Z,1.00
2023-03-28T18:24:53.555Z,1.10
2023-03-28T18:27:21.458Z,1.17
2023-03-28T18:29:49.289Z,1.20
2023-03-28T18:32:18.221Z,1.77
2023-03-28T18:34:45.853Z,1.50
2023-03-28T18:37:13.441Z,2.40
2023-03-28T18:39:42.207Z,2.03
2023-03-28T18:42:10.550Z,3.73
2023-03-28T18:44:38.904Z,5.13
2023-03-28T18:47:07.710Z,6.00
2023-03-28T18:49:36.753Z,6.13
2023-03-28T18:52:05.033Z,5.37
2023-03-28T18:54:33.449Z,5.37
2023-03-28T18:57:01.500Z,4.80
2023-03-28T18:59:29.937Z,5.00
2023-03-28T19:01:59.596Z,3.93
2023-03-28T19:04:27.835Z,3.80
2023-03-28T19:06:57.544Z,3.70
2023-03-28T19:09:25.493Z,3.33
2023-03-28T19:11:54.620Z,3.03
2023-03-28T19:14:22.694Z,3.00
2023-03-28T19:16:50.771Z,2.20
2023-03-28T19:19:18.429Z,2.67
2023-03-28T19:21:46.054Z,2.50
2023-03-28T19:24:14.967Z,2.33
2023-03-28T19:26:42.576Z,2.47
2023-03-28T19:29:10.690Z,1.93
2023-03-28T19:31:38.277Z,2.00
2023-03-28T19:34:07.814Z,1.93
2023-03-28T19:36:35.512Z,1.70
2023-03-28T19:39:03.108Z,1.70
2023-03-28T19:41:32.086Z,1.90
2023-03-28T19:43:59.737Z,1.80
2023-03-28T19:46:33.839Z,1.90
2023-03-28T19:49:05.538Z,1.60
2023-03-28T19:51:33.980Z,1.53
2023-03-28T19:54:01.606Z,1.80
2023-03-28T19:56:29.518Z,2.03
2023-03-28T19:58:58.491Z,1.93
2023-03-28T20:01:26.177Z,1.93
2023-03-28T20:03:53.856Z,1.83
2023-03-28T20:06:23.400Z,1.80
2023-03-28T20:08:51.733Z,1.80
2023-03-28T20:11:19.672Z,1.60
2023-03-28T20:13:47.311Z,1.90
2023-03-28T20:16:16.571Z,1.60
2023-03-28T20:18:44.580Z,1.70
2023-03-28T20:21:13.719Z,1.70
2023-03-28T20:23:41.964Z,1.53
2023-03-28T20:26:15.462Z,1.70
2023-03-28T20:28:46.729Z,1.60
2023-03-28T20:31:15.879Z,1.50
2023-03-28T20:33:43.620Z,1.70
2023-03-28T20:36:11.819Z,1.40
2023-03-28T20:38:39.418Z,1.30
2023-03-28T20:41:10.908Z,1.63
2023-03-28T20:43:40.572Z,1.60
2023-03-28T20:46:09.798Z,1.50
2023-03-28T20:48:38.758Z,1.63
2023-03-28T20:51:13.940Z,1.60
2023-03-28T20:53:42.183Z,2.57
2023-03-28T20:56:11.596Z,2.87
2023-03-28T20:58:40.281Z,2.90
2023-03-28T21:01:10.640Z,2.43
2023-03-28T21:03:46.546Z,2.10
2023-03-28T21:06:16.123Z,2.27
2023-03-28T21:08:46.968Z,2.13
2023-03-28T21:11:15.120Z,1.90
2023-03-28T21:13:42.883Z,2.07
2023-03-28T21:16:11.800Z,1.87
2023-03-28T21:18:41.185Z,1.87
2023-03-28T21:21:09.121Z,2.20
2023-03-28T21:23:37.828Z,2.20
2023-03-28T21:26:06.921Z,3.00
2023-03-28T21:28:34.984Z,2.73
2023-03-28T21:31:04.645Z,2.67
2023-03-28T21:33:32.244Z,3.17
2023-03-28T21:36:01.429Z,2.43
2023-03-28T21:38:29.043Z,2.20
2023-03-28T21:40:56.746Z,2.30
2023-03-28T21:43:24.306Z,2.00
2023-03-28T21:45:52.050Z,2.50
2023-03-28T21:48:19.872Z,2.10
2023-03-28T21:50:51.542Z,1.80
2023-03-28T21:53:21.436Z,2.10
2023-03-28T21:55:49.392Z,1.90
2023-03-28T21:58:17.006Z,1.77
2023-03-28T22:00:44.664Z,1.50
2023-03-28T22:03:12.408Z,1.50
2023-03-28T22:05:42.658Z,1.77
2023-03-28T22:08:12.342Z,1.63
2023-03-28T22:10:46.694Z,1.60
2023-03-28T22:13:15.050Z,1.57
2023-03-28T22:15:42.852Z,1.70
2023-03-28T22:18:11.327Z,1.60
2023-03-28T22:20:42.724Z,1.47
2023-03-28T22:23:11.035Z,1.40
2023-03-28T22:25:39.409Z,1.97
2023-03-28T22:28:10.230Z,1.93
2023-03-28T22:30:39.451Z,2.03
2023-03-28T22:33:09.113Z,2.07
2023-03-28T22:35:36.908Z,2.50
2023-03-28T22:38:05.473Z,2.37
2023-03-28T22:40:33.325Z,2.37
2023-03-28T22:43:01.443Z,2.20
2023-03-28T22:45:30.429Z,2.30
2023-03-28T22:48:01.689Z,2.17
2023-03-28T22:50:29.496Z,2.20
2023-03-28T22:52:57.131Z,2.37
2023-03-28T22:55:25.447Z,2.17
2023-03-28T22:57:53.531Z,2.30
2023-03-28T23:00:22.949Z,2.40
2023-03-28T23:02:52.694Z,2.30
2023-03-28T23:05:20.855Z,2.17
2023-03-28T23:07:49.174Z,2.00
2023-03-28T23:10:19.070Z,2.20
2023-03-28T23:12:48.705Z,2.60
2023-03-28T23:15:16.777Z,2.03
2023-03-28T23:17:44.514Z,1.93
2023-03-28T23:20:14.809Z,1.87
2023-03-28T23:22:44.319Z,1.97
2023-03-28T23:25:13.133Z,1.77
2023-03-28T23:27:41.626Z,1.80
2023-03-28T23:30:10.812Z,1.90
2023-03-28T23:32:38.833Z,1.77
2023-03-28T23:35:08.117Z,1.70
2023-03-28T23:37:38.111Z,1.60
2023-03-28T23:40:10.848Z,2.10
2023-03-28T23:42:38.544Z,2.00
2023-03-28T23:45:07.182Z,1.80
2023-03-28T23:47:34.878Z,1.67
2023-03-28T23:50:02.494Z,2.60
2023-03-28T23:52:30.626Z,2.50
2023-03-28T23:54:59.577Z,2.27
2023-03-28T23:57:28.606Z,2.40
2023-03-28T23:59:56.927Z,2.20
